CheckWX is a tool to help pilots better visualize weather data.  It is not intended as a substitute for an official pre-flight weather briefing.

07:19:15 UTC

KLBO METAR
Floyd W Jones Lebanon Airport
Lebanon, Missouri, USA
Current

24 mins ago

KLBO 210655Z AUTO 10009KT 7SM TSRA BKN003 BKN010 OVC015 14/13 A2986 RMK AO2 P0011 LTG DSNT ALQS
Observed
May-21 @ 06:55 UTC
Wind
  • 100° at 9 KTS
Visibility
7 SM
Flight Rules
LIFR
Conditions
Thunderstorm, Rain
Cloud Levels
  • Broken at 300' AGL
  • Broken at 1,000' AGL
  • Overcast at 1,500' AGL
Temperature
14°C / 57°F
Dewpoint
13°C / 55°F
Humidity
94%
Altimeter
29.86" Hg
Pressure
1011.22 hPa
Current Rain
0.11"
Previous

44 mins ago

KLBO 210635Z AUTO 00000KT 5SM TSRA BKN005 OVC013 14/13 A2989 RMK AO2 P0007 LTG DSNT ALQS
Observed
May-21 @ 06:35 UTC
Visibility
5 SM
Flight Rules
IFR
Conditions
Thunderstorm, Rain
Cloud Levels
  • Broken at 500' AGL
  • Overcast at 1,300' AGL
Temperature
14°C / 57°F
Dewpoint
13°C / 55°F
Humidity
94%
Altimeter
29.89" Hg
Pressure
1012.22 hPa
Current Rain
0.07"
Previous

1 hour ago

KLBO 210615Z AUTO 00000KT 5SM TSRA OVC005 14/13 A2990 RMK AO2 P0003 LTG DSNT ALQS
Observed
May-21 @ 06:15 UTC
Visibility
5 SM
Flight Rules
IFR
Conditions
Thunderstorm, Rain
Cloud Levels
  • Overcast at 500' AGL
Temperature
14°C / 57°F
Dewpoint
13°C / 55°F
Humidity
94%
Altimeter
29.9" Hg
Pressure
1012.52 hPa
Current Rain
0.03"